Time;durP1;ratioP1;P1;durP2;ratioP2;P2;SDS_P1;SDS_P2;PMS_P1;PMS_P2;Temp;Humidity;BMP_temperature;BMP_pressure;BME280_temperature;BME280_humidity;BME280_pressure;Samples;Min_cycle;Max_cycle;Signal;HPM_P1;HPM_P2
2022/10/07 00:00:45;;;;;;;42.42;25.38;;;12.50;99.90;;;;;;6312607;22;19991;-81
2022/10/07 00:03:10;;;;;;;35.85;24.67;;;12.40;99.90;;;;;;6340177;22;19995;-81
2022/10/07 00:05:36;;;;;;;34.75;23.92;;;12.50;99.90;;;;;;6312497;22;19998;-83
2022/10/07 00:08:02;;;;;;;36.63;25.02;;;12.50;99.90;;;;;;6339828;22;20036;-83
2022/10/07 00:10:28;;;;;;;39.80;23.60;;;12.50;99.90;;;;;;6312389;22;20041;-82
2022/10/07 00:12:54;;;;;;;35.88;24.48;;;12.40;99.90;;;;;;6339948;22;20418;-81
2022/10/07 00:15:22;;;;;;;39.67;23.48;;;12.40;99.90;;;;;;6339742;22;19998;-81
2022/10/07 00:17:48;;;;;;;40.50;23.73;;;12.40;99.90;;;;;;6339745;22;20094;-83
2022/10/07 00:20:14;;;;;;;39.20;23.40;;;12.40;99.90;;;;;;6311935;22;20407;-83
2022/10/07 00:22:39;;;;;;;38.85;24.50;;;12.30;99.90;;;;;;6312157;22;20072;-82
2022/10/07 00:25:05;;;;;;;41.15;24.85;;;12.30;99.90;;;;;;6339793;22;19998;-81
2022/10/07 00:27:31;;;;;;;36.33;23.30;;;12.30;99.90;;;;;;6339480;22;20460;-82
2022/10/07 00:29:57;;;;;;;38.78;22.00;;;12.30;99.90;;;;;;6312158;22;20311;-84
2022/10/07 00:32:23;;;;;;;35.63;22.38;;;12.30;99.90;;;;;;6339439;22;20315;-81
2022/10/07 00:34:48;;;;;;;38.72;22.67;;;12.30;99.90;;;;;;6339993;22;20014;-84
2022/10/07 00:37:14;;;;;;;33.95;21.00;;;12.30;99.90;;;;;;6312394;22;20010;-82
2022/10/07 00:39:40;;;;;;;38.85;20.40;;;12.30;99.90;;;;;;6339734;22;20082;-82
2022/10/07 00:42:06;;;;;;;31.88;21.02;;;12.30;99.90;;;;;;6339458;22;20064;-80
2022/10/07 00:44:35;;;;;;;28.70;20.52;;;12.30;99.90;;;;;;6339768;22;20400;-82
2022/10/07 00:47:11;;;;;;;36.97;20.58;;;12.30;99.90;;;;;;6339163;22;20355;-83
2022/10/07 00:50:00;;;;;;;29.83;20.73;;;12.30;99.90;;;;;;6339135;22;19995;-83
2022/10/07 00:52:30;;;;;;;27.05;19.13;;;12.30;99.90;;;;;;6339775;22;20395;-83
2022/10/07 00:54:58;;;;;;;26.58;18.60;;;12.30;99.90;;;;;;6339392;22;19997;-82
2022/10/07 00:57:27;;;;;;;31.05;20.98;;;12.30;99.90;;;;;;6311232;22;20315;-82
2022/10/07 00:59:54;;;;;;;30.98;21.25;;;12.30;99.90;;;;;;6339509;22;20000;-83
2022/10/07 01:02:24;;;;;;;29.13;18.58;;;12.30;99.90;;;;;;6311573;22;19991;-82
2022/10/07 01:04:52;;;;;;;28.90;16.33;;;12.30;99.90;;;;;;6339274;22;20370;-81
2022/10/07 01:07:20;;;;;;;25.55;17.38;;;12.10;99.90;;;;;;6311758;22;20003;-84
2022/10/07 01:09:51;;;;;;;27.35;17.48;;;12.00;99.90;;;;;;6338785;22;20026;-82
2022/10/07 01:12:29;;;;;;;26.92;19.02;;;12.00;99.90;;;;;;6311715;22;20048;-83
2022/10/07 01:15:10;;;;;;;34.78;19.15;;;12.00;99.90;;;;;;6339476;22;20066;-83
2022/10/07 01:18:11;;;;;;;33.63;20.75;;;12.10;99.90;;;;;;6311655;22;20086;-81
2022/10/07 01:20:52;;;;;;;27.75;19.35;;;12.10;99.90;;;;;;6311671;22;19991;-81
2022/10/07 01:23:24;;;;;;;32.38;19.48;;;12.10;99.90;;;;;;6338890;22;19998;-82
2022/10/07 01:26:23;;;;;;;33.65;20.27;;;12.10;99.90;;;;;;6311503;22;20010;-83
2022/10/07 01:28:59;;;;;;;28.25;18.33;;;12.10;99.90;;;;;;6339348;22;19998;-81
2022/10/07 01:31:34;;;;;;;34.17;18.30;;;12.10;99.90;;;;;;6310968;22;19994;-82
2022/10/07 01:34:02;;;;;;;29.20;18.02;;;12.10;99.90;;;;;;6311650;22;20311;-80
2022/10/07 01:36:28;;;;;;;30.80;20.42;;;12.00;99.90;;;;;;6311234;22;20407;-84
2022/10/07 01:39:01;;;;;;;39.83;21.25;;;12.00;99.90;;;;;;6339053;22;19995;-81
2022/10/07 01:41:29;;;;;;;35.17;20.77;;;12.00;99.90;;;;;;6339313;22;20014;-80
2022/10/07 01:43:56;;;;;;;36.28;21.00;;;12.10;99.90;;;;;;6311055;22;20022;-81
2022/10/07 01:46:24;;;;;;;38.05;20.60;;;12.10;99.90;;;;;;6311265;22;20049;-82
2022/10/07 01:48:52;;;;;;;34.50;21.83;;;12.10;99.90;;;;;;6339135;22;20001;-82
2022/10/07 01:51:22;;;;;;;29.75;18.77;;;12.10;99.90;;;;;;6338997;22;20002;-81
2022/10/07 01:54:06;;;;;;;28.67;18.35;;;12.10;99.90;;;;;;6311466;22;20431;-82
2022/10/07 01:56:52;;;;;;;25.48;17.63;;;12.10;99.90;;;;;;6339036;22;20037;-82
2022/10/07 01:59:24;;;;;;;26.90;18.98;;;12.10;99.90;;;;;;6339068;22;20025;-82
2022/10/07 02:02:19;;;;;;;31.25;19.23;;;12.10;99.90;;;;;;6339255;22;19995;-83
2022/10/07 02:04:45;;;;;;;24.40;18.20;;;12.10;99.90;;;;;;6334499;22;20003;-82
2022/10/07 02:07:22;;;;;;;29.88;17.77;;;12.10;99.90;;;;;;6338959;22;19995;-81
2022/10/07 02:09:57;;;;;;;33.33;20.15;;;12.10;99.90;;;;;;6311392;22;20308;-82
2022/10/07 02:12:34;;;;;;;36.08;21.08;;;12.10;99.90;;;;;;6339206;22;20140;-80
2022/10/07 02:15:07;;;;;;;37.65;21.63;;;12.20;99.90;;;;;;6311710;22;20082;-80
2022/10/07 02:17:37;;;;;;;40.10;22.90;;;12.20;99.90;;;;;;6311635;22;20423;-81
2022/10/07 02:20:08;;;;;;;41.17;23.75;;;12.20;99.90;;;;;;6339272;22;19998;-81
2022/10/07 02:22:35;;;;;;;43.83;23.37;;;12.20;99.90;;;;;;6341155;22;19995;-82
2022/10/07 02:25:01;;;;;;;38.10;24.00;;;12.20;99.90;;;;;;6340439;22;20408;-82
2022/10/07 02:27:35;;;;;;;36.25;21.38;;;12.20;99.90;;;;;;6313108;22;20013;-82
2022/10/07 02:30:12;;;;;;;39.63;21.33;;;12.20;99.90;;;;;;6313306;22;20002;-83
2022/10/07 02:32:44;;;;;;;31.08;20.08;;;12.20;99.90;;;;;;6313502;22;20010;-83
2022/10/07 02:35:27;;;;;;;31.90;18.83;;;12.20;99.90;;;;;;6312955;22;20026;-83
2022/10/07 02:37:55;;;;;;;25.23;18.15;;;12.10;99.90;;;;;;6313181;22;20006;-81
2022/10/07 02:40:27;;;;;;;28.83;18.55;;;12.10;99.90;;;;;;6340402;22;20007;-80
2022/10/07 02:42:59;;;;;;;27.80;17.45;;;12.10;99.90;;;;;;6340838;22;19999;-83
2022/10/07 02:45:50;;;;;;;28.02;17.80;;;12.10;99.90;;;;;;6313093;22;19999;-82
2022/10/07 02:48:38;;;;;;;30.37;18.07;;;12.10;99.90;;;;;;6340563;22;20012;-81
2022/10/07 02:51:09;;;;;;;47.92;25.73;;;12.10;99.90;;;;;;6313166;22;20311;-82
2022/10/07 02:53:36;;;;;;;40.83;21.60;;;12.20;99.90;;;;;;6313524;22;19995;-83
2022/10/07 02:56:04;;;;;;;39.10;22.52;;;12.20;99.90;;;;;;6312733;22;20006;-83
2022/10/07 02:58:30;;;;;;;31.52;19.55;;;12.20;99.90;;;;;;6313047;22;20303;-83
2022/10/07 03:00:59;;;;;;;31.52;21.13;;;12.20;99.90;;;;;;6340639;22;19987;-80
2022/10/07 03:03:25;;;;;;;29.98;19.17;;;12.20;99.90;;;;;;6340353;22;19991;-83
2022/10/07 03:05:51;;;;;;;27.15;17.58;;;12.20;99.90;;;;;;6340045;22;20375;-81
2022/10/07 03:08:20;;;;;;;28.80;18.98;;;12.20;99.90;;;;;;6339955;22;19995;-83
2022/10/07 03:10:46;;;;;;;26.52;17.65;;;12.20;99.90;;;;;;6312996;22;19999;-83
2022/10/07 03:13:14;;;;;;;26.48;17.05;;;12.20;99.90;;;;;;6340909;22;19994;-81
2022/10/07 03:15:40;;;;;;;28.95;17.55;;;12.20;99.90;;;;;;6340533;22;20027;-83
2022/10/07 03:18:24;;;;;;;23.25;17.50;;;12.20;99.90;;;;;;6340924;22;20429;-84
2022/10/07 03:20:54;;;;;;;30.90;19.38;;;12.20;99.90;;;;;;6312875;22;19999;-81
2022/10/07 03:23:21;;;;;;;25.10;16.60;;;12.20;99.90;;;;;;6340178;22;19999;-81
2022/10/07 03:25:50;;;;;;;27.00;17.25;;;12.20;99.90;;;;;;6312633;22;20056;-85
2022/10/07 03:28:17;;;;;;;27.35;17.25;;;12.20;99.90;;;;;;6312581;22;20006;-82
2022/10/07 03:30:43;;;;;;;27.42;17.35;;;12.30;99.90;;;;;;6340113;22;20010;-83
2022/10/07 03:33:09;;;;;;;27.83;17.13;;;12.20;99.90;;;;;;6312072;22;19995;-82
2022/10/07 03:35:34;;;;;;;25.52;17.85;;;12.20;99.90;;;;;;6339855;22;20416;-82
2022/10/07 03:38:00;;;;;;;28.17;17.98;;;12.20;99.90;;;;;;6340107;22;20299;-82
2022/10/07 03:40:26;;;;;;;28.67;17.45;;;12.20;99.90;;;;;;6312118;22;20011;-82
2022/10/07 03:42:52;;;;;;;27.10;17.42;;;12.30;99.90;;;;;;6339883;22;20029;-82
2022/10/07 03:45:19;;;;;;;33.97;18.33;;;12.30;99.90;;;;;;6340171;22;19991;-80
2022/10/07 03:47:45;;;;;;;30.48;17.17;;;12.30;99.90;;;;;;6312290;22;19990;-82
2022/10/07 03:50:11;;;;;;;28.55;16.70;;;12.20;99.90;;;;;;6312415;22;20006;-83
2022/10/07 03:52:36;;;;;;;28.27;17.95;;;12.20;99.90;;;;;;6312473;22;20284;-81
2022/10/07 03:55:02;;;;;;;29.67;17.35;;;12.30;99.90;;;;;;6339998;22;20073;-82
2022/10/07 04:00:12;;;;;;;36.45;17.77;;;12.20;99.90;;;;;;6339899;22;20089;-83
2022/10/07 04:02:38;;;;;;;29.02;16.77;;;12.30;99.90;;;;;;6312274;22;20026;-81
2022/10/07 04:05:04;;;;;;;22.60;16.48;;;12.30;99.90;;;;;;6311437;22;19995;-81
2022/10/07 04:07:30;;;;;;;28.13;17.48;;;12.20;99.90;;;;;;6339655;22;20411;-82
2022/10/07 04:09:55;;;;;;;30.90;16.92;;;12.30;99.90;;;;;;6312228;22;20023;-83
2022/10/07 04:12:21;;;;;;;40.30;17.05;;;12.20;99.90;;;;;;6340172;22;19991;-83
2022/10/07 04:14:47;;;;;;;32.80;18.40;;;12.30;99.90;;;;;;6312316;22;19995;-81
2022/10/07 04:17:13;;;;;;;33.67;19.60;;;12.20;99.90;;;;;;6339685;22;20489;-81
2022/10/07 04:19:38;;;;;;;31.88;19.10;;;12.30;99.90;;;;;;6339911;22;19995;-83
2022/10/07 04:22:05;;;;;;;30.20;17.58;;;12.30;99.90;;;;;;6339438;22;20026;-81
2022/10/07 04:24:31;;;;;;;29.90;17.98;;;12.30;99.90;;;;;;6339873;22;19990;-82
2022/10/07 04:26:56;;;;;;;31.35;18.20;;;12.20;99.90;;;;;;6311855;22;20009;-82
2022/10/07 04:29:22;;;;;;;33.55;19.33;;;12.20;99.90;;;;;;6340061;22;19999;-80
2022/10/07 04:31:48;;;;;;;25.67;17.38;;;12.20;99.90;;;;;;6339478;22;19991;-84
2022/10/07 04:34:13;;;;;;;34.72;17.67;;;12.20;99.90;;;;;;6339129;22;20005;-82
2022/10/07 04:36:39;;;;;;;27.40;18.65;;;12.20;99.90;;;;;;6312003;22;20039;-82
2022/10/07 04:39:05;;;;;;;30.60;18.35;;;12.10;99.90;;;;;;6339414;22;19990;-83
2022/10/07 04:41:31;;;;;;;33.88;19.13;;;12.10;99.90;;;;;;6311892;22;20002;-82
2022/10/07 04:43:57;;;;;;;36.53;19.40;;;12.10;99.90;;;;;;6311760;22;19999;-83
2022/10/07 04:46:22;;;;;;;35.28;22.00;;;12.10;99.90;;;;;;6311789;22;20081;-81
2022/10/07 04:48:48;;;;;;;37.05;22.48;;;12.10;99.90;;;;;;6311589;22;19990;-82
2022/10/07 04:51:14;;;;;;;32.90;21.15;;;12.10;99.90;;;;;;6311878;22;19991;-83
2022/10/07 04:53:40;;;;;;;32.88;20.83;;;12.10;99.90;;;;;;6311581;22;20420;-83
2022/10/07 04:56:07;;;;;;;33.05;21.48;;;12.10;99.90;;;;;;6339544;22;19998;-83
2022/10/07 04:58:33;;;;;;;34.40;21.42;;;12.00;99.90;;;;;;6339607;22;20343;-83
2022/10/07 05:01:00;;;;;;;38.65;22.35;;;12.00;99.90;;;;;;6339088;22;19998;-84
2022/10/07 05:03:28;;;;;;;36.20;23.88;;;12.00;99.90;;;;;;6311879;22;20322;-83
2022/10/07 05:05:55;;;;;;;38.38;22.95;;;12.00;99.90;;;;;;6311472;22;20003;-85
2022/10/07 05:08:26;;;;;;;33.20;23.63;;;12.10;99.90;;;;;;6311795;22;20276;-85
2022/10/07 05:11:00;;;;;;;33.45;23.67;;;12.10;99.90;;;;;;6339685;22;19991;-83
2022/10/07 05:13:27;;;;;;;46.65;26.33;;;12.10;99.90;;;;;;6339793;22;19995;-82
2022/10/07 05:15:56;;;;;;;41.40;26.35;;;12.10;99.90;;;;;;6338820;22;20404;-81
2022/10/07 05:18:22;;;;;;;40.20;24.83;;;12.10;99.90;;;;;;6339338;22;19987;-81
2022/10/07 05:20:49;;;;;;;32.60;21.50;;;12.10;99.90;;;;;;6339281;22;19990;-83
2022/10/07 05:23:16;;;;;;;34.47;20.92;;;12.10;99.90;;;;;;6311449;22;20002;-85
2022/10/07 05:25:43;;;;;;;35.30;25.30;;;12.10;99.90;;;;;;6339474;22;19995;-82
2022/10/07 05:28:10;;;;;;;45.30;27.67;;;12.10;99.90;;;;;;6311382;22;20022;-82
2022/10/07 05:30:37;;;;;;;44.72;29.20;;;12.10;99.90;;;;;;6339039;22;20437;-81
2022/10/07 05:33:03;;;;;;;45.85;29.08;;;12.20;99.90;;;;;;6338722;22;19995;-82
2022/10/07 05:35:30;;;;;;;43.38;27.40;;;12.20;99.90;;;;;;6311073;22;19995;-83
2022/10/07 05:37:56;;;;;;;39.92;24.98;;;12.20;99.90;;;;;;6339399;22;19998;-80
2022/10/07 05:40:22;;;;;;;39.83;24.00;;;12.30;99.90;;;;;;6310970;22;20011;-82
2022/10/07 05:42:48;;;;;;;32.20;21.75;;;12.30;99.90;;;;;;6338477;22;20097;-81
2022/10/07 05:45:14;;;;;;;26.85;20.58;;;12.30;99.90;;;;;;6311635;22;20300;-81
2022/10/07 05:47:40;;;;;;;35.85;21.33;;;12.40;99.90;;;;;;6311431;22;20461;-80
2022/10/07 05:50:06;;;;;;;27.20;19.65;;;12.40;99.90;;;;;;6311158;22;19999;-80
2022/10/07 05:52:32;;;;;;;34.20;19.63;;;12.50;99.90;;;;;;6339322;22;19987;-79
2022/10/07 05:54:58;;;;;;;36.88;19.67;;;12.60;99.90;;;;;;6311061;22;20293;-80
2022/10/07 05:57:24;;;;;;;34.30;20.95;;;12.60;99.90;;;;;;6340741;22;20060;-81
2022/10/07 05:59:50;;;;;;;36.80;21.60;;;12.60;99.90;;;;;;6341181;22;19990;-83
2022/10/07 06:02:17;;;;;;;34.95;21.02;;;12.70;99.90;;;;;;6340541;22;20041;-84
2022/10/07 06:04:47;;;;;;;40.58;21.65;;;12.70;99.90;;;;;;6340615;22;20022;-82
2022/10/07 06:07:14;;;;;;;36.30;19.27;;;12.80;99.90;;;;;;6341160;22;20068;-80
2022/10/07 06:15:09;;;;;;;38.05;21.33;;;13.00;99.90;;;;;;6341132;22;20005;-81
2022/10/07 06:17:40;;;;;;;36.17;21.10;;;13.00;99.90;;;;;;6341273;22;20029;-81
2022/10/07 06:20:06;;;;;;;50.13;21.75;;;13.00;99.90;;;;;;6341556;22;19998;-83
2022/10/07 06:22:32;;;;;;;35.00;21.45;;;13.10;99.90;;;;;;6341015;22;19995;-82
2022/10/07 06:25:01;;;;;;;44.97;23.88;;;13.10;99.90;;;;;;6313226;22;19991;-84
2022/10/07 06:27:27;;;;;;;51.65;27.45;;;13.20;99.90;;;;;;6340889;22;20014;-80
2022/10/07 06:29:53;;;;;;;40.58;24.70;;;13.20;99.90;;;;;;6313484;22;20002;-81
2022/10/07 06:32:19;;;;;;;34.83;24.77;;;13.20;99.90;;;;;;6312850;22;19999;-81
2022/10/07 06:34:45;;;;;;;42.40;26.92;;;13.20;99.90;;;;;;6340612;22;19998;-80
2022/10/07 06:37:10;;;;;;;41.63;25.45;;;13.30;99.90;;;;;;6312861;22;20034;-81
2022/10/07 06:39:36;;;;;;;41.75;24.25;;;13.30;99.90;;;;;;6312587;22;20042;-82
2022/10/07 06:42:02;;;;;;;42.60;24.65;;;13.40;99.90;;;;;;6340757;22;19987;-80
2022/10/07 06:44:30;;;;;;;39.30;23.58;;;13.40;99.90;;;;;;6313331;22;19998;-80
2022/10/07 06:46:56;;;;;;;41.20;24.48;;;13.50;99.90;;;;;;6312977;22;20049;-80
2022/10/07 06:49:22;;;;;;;36.33;23.90;;;13.50;99.90;;;;;;6340207;22;20009;-77
2022/10/07 06:51:48;;;;;;;41.70;22.63;;;13.50;99.90;;;;;;6340787;22;20077;-80
2022/10/07 06:54:13;;;;;;;38.15;21.60;;;13.60;99.90;;;;;;6340237;22;20353;-80
2022/10/07 06:56:39;;;;;;;32.95;21.80;;;13.60;99.90;;;;;;6340246;22;20355;-78
2022/10/07 06:59:05;;;;;;;34.35;23.30;;;13.60;99.90;;;;;;6340254;22;20002;-81
2022/10/07 07:01:31;;;;;;;35.80;22.10;;;13.70;99.90;;;;;;6340460;22;19995;-81
2022/10/07 07:03:57;;;;;;;36.72;24.13;;;13.70;99.90;;;;;;6312940;22;20466;-80
2022/10/07 07:06:24;;;;;;;35.22;22.83;;;13.70;99.90;;;;;;6339979;22;20029;-80
2022/10/07 07:08:49;;;;;;;39.25;23.35;;;13.80;99.90;;;;;;6312861;22;19995;-83
2022/10/07 07:11:35;;;;;;;41.05;22.63;;;13.90;99.90;;;;;;6340249;22;20066;-82
2022/10/07 07:14:03;;;;;;;32.10;21.92;;;14.00;99.90;;;;;;6312731;22;20060;-83
2022/10/07 07:16:30;;;;;;;34.50;21.73;;;14.20;99.90;;;;;;6312472;22;20010;-82
2022/10/07 07:18:58;;;;;;;30.70;21.42;;;14.40;99.90;;;;;;6340393;22;19998;-82
2022/10/07 07:21:27;;;;;;;31.85;20.23;;;14.50;99.90;;;;;;6340394;22;20408;-83
2022/10/07 07:23:53;;;;;;;35.03;19.83;;;14.60;99.90;;;;;;6339916;22;20302;-83
2022/10/07 07:26:19;;;;;;;37.97;19.42;;;14.70;99.90;;;;;;6312696;22;20030;-82
2022/10/07 07:29:00;;;;;;;27.48;17.33;;;14.90;99.90;;;;;;6311959;22;20006;-83
2022/10/07 07:31:31;;;;;;;31.80;18.10;;;15.00;99.90;;;;;;6312268;22;19998;-83
2022/10/07 07:34:00;;;;;;;39.92;18.25;;;15.30;99.90;;;;;;6340430;22;20019;-82
2022/10/07 07:36:28;;;;;;;29.42;18.30;;;15.30;99.90;;;;;;6312758;22;19999;-82
2022/10/07 07:38:56;;;;;;;26.33;17.10;;;15.50;99.90;;;;;;6313057;22;20005;-82
2022/10/07 07:41:31;;;;;;;28.73;17.10;;;15.80;99.90;;;;;;6339899;22;20007;-83
2022/10/07 07:44:00;;;;;;;38.40;18.05;;;16.00;99.90;;;;;;6340483;22;20403;-83
2022/10/07 07:46:31;;;;;;;30.08;16.67;;;16.10;99.90;;;;;;6312332;22;19998;-83
2022/10/07 07:48:57;;;;;;;37.53;24.50;;;16.20;99.90;;;;;;6312388;22;19998;-83
2022/10/07 07:51:23;;;;;;;57.47;24.98;;;16.20;99.90;;;;;;6312424;22;20077;-81
2022/10/07 07:53:49;;;;;;;43.22;20.17;;;16.20;99.90;;;;;;6312240;22;19995;-82
2022/10/07 07:56:16;;;;;;;37.30;17.42;;;16.20;99.90;;;;;;6311869;22;20415;-82
2022/10/07 07:58:53;;;;;;;31.10;17.10;;;16.10;99.90;;;;;;6339993;22;20285;-83
2022/10/07 08:01:19;;;;;;;25.77;17.90;;;16.20;99.90;;;;;;6312590;22;19999;-82
2022/10/07 08:03:46;;;;;;;28.00;17.67;;;16.30;99.90;;;;;;6340096;22;20336;-82
2022/10/07 08:06:16;;;;;;;30.75;18.02;;;16.30;99.90;;;;;;6339965;22;20342;-81
2022/10/07 08:08:42;;;;;;;31.13;17.90;;;16.30;99.90;;;;;;6312573;22;20082;-81
2022/10/07 08:11:14;;;;;;;27.02;18.20;;;16.30;99.90;;;;;;6312372;22;20407;-81
2022/10/07 08:13:41;;;;;;;25.70;17.15;;;16.30;99.90;;;;;;6340429;22;20022;-81
2022/10/07 08:16:13;;;;;;;25.27;17.70;;;16.30;99.90;;;;;;6311988;22;20002;-83
2022/10/07 08:18:39;;;;;;;;;;;16.30;99.90;;;;;;6312484;22;19995;-83
2022/10/07 08:21:06;;;;;;;27.15;16.85;;;16.30;99.90;;;;;;6312113;22;19905;-80
2022/10/07 08:23:34;;;;;;;29.08;17.13;;;16.20;99.90;;;;;;6312128;22;19995;-81
2022/10/07 08:26:01;;;;;;;28.45;16.48;;;16.30;99.90;;;;;;6312478;22;20002;-82
2022/10/07 08:28:27;;;;;;;28.42;16.25;;;16.20;99.90;;;;;;6312388;22;20010;-81
2022/10/07 08:30:54;;;;;;;27.90;16.73;;;16.30;99.90;;;;;;6312231;22;20010;-81
2022/10/07 08:33:21;;;;;;;28.80;17.10;;;16.40;99.90;;;;;;6312475;22;19990;-82
2022/10/07 08:35:51;;;;;;;25.55;16.08;;;16.60;99.90;;;;;;6339308;22;20003;-81
2022/10/07 08:38:17;;;;;;;22.38;15.30;;;16.60;99.90;;;;;;6312311;22;19995;-80
2022/10/07 08:40:48;;;;;;;23.40;15.57;;;16.80;99.90;;;;;;6311987;22;20064;-87
2022/10/07 08:43:15;;;;;;;26.90;16.83;;;16.90;99.90;;;;;;6312432;22;20447;-82
2022/10/07 08:45:41;;;;;;;23.20;15.52;;;16.90;99.90;;;;;;6339688;22;20030;-82
2022/10/07 08:48:13;;;;;;;28.27;15.80;;;17.00;99.90;;;;;;6339386;22;19998;-83
2022/10/07 08:50:50;;;;;;;26.48;15.63;;;17.10;99.90;;;;;;6310161;22;20404;-83
2022/10/07 08:53:23;;;;;;;26.05;14.48;;;17.30;99.90;;;;;;6339518;22;19995;-84
2022/10/07 08:56:00;;;;;;;27.13;13.85;;;17.50;99.90;;;;;;6311440;22;20002;-84
2022/10/07 08:58:42;;;;;;;19.98;14.77;;;17.60;99.90;;;;;;6339611;22;20298;-82
2022/10/07 09:01:14;;;;;;;;;;;17.90;99.90;;;;;;6311933;22;19991;-83
2022/10/07 09:04:01;;;;;;;22.42;14.50;;;17.90;99.90;;;;;;6311662;22;19979;-83
2022/10/07 09:06:33;;;;;;;23.92;15.00;;;18.10;99.90;;;;;;6311142;22;20037;-81
2022/10/07 09:09:05;;;;;;;25.30;14.73;;;18.20;99.90;;;;;;6311306;22;20025;-82
2022/10/07 09:11:34;;;;;;;26.92;14.57;;;18.40;99.90;;;;;;6311910;22;20407;-81
2022/10/07 09:14:40;;;;;;;30.33;14.73;;;18.50;99.90;;;;;;6311174;22;20001;-81
2022/10/07 09:17:14;;;;;;;23.48;15.30;;;18.60;99.90;;;;;;6158179;23;20092;-82
2022/10/07 09:19:49;;;;;;;22.20;13.98;;;18.80;99.90;;;;;;6158326;23;20001;-81
2022/10/07 09:22:30;;;;;;;22.75;14.63;;;18.80;99.90;;;;;;6158460;23;20075;-81
2022/10/07 09:25:19;;;;;;;31.73;15.80;;;18.90;99.90;;;;;;6158255;23;20058;-80
2022/10/07 09:27:47;;;;;;;19.45;13.40;;;19.00;99.90;;;;;;6204234;23;20004;-82
2022/10/07 09:30:14;;;;;;;20.42;13.80;;;19.10;99.90;;;;;;6187722;23;19993;-82
2022/10/07 09:32:43;;;;;;;22.30;14.93;;;19.10;99.90;;;;;;6187840;23;20131;-82
2022/10/07 09:35:24;;;;;;;22.23;14.50;;;19.20;99.90;;;;;;6212692;23;20389;-83
2022/10/07 09:37:59;;;;;;;29.90;15.55;;;19.20;99.90;;;;;;6213004;23;20012;-82
2022/10/07 09:43:34;;;;;;;20.65;12.23;;;19.40;99.90;;;;;;6213005;23;20016;-85
2022/10/07 09:46:01;;;;;;;18.65;12.70;;;19.50;99.90;;;;;;6212697;23;20011;-83
2022/10/07 09:48:32;;;;;;;20.58;13.52;;;19.50;99.90;;;;;;6187755;23;20003;-82
2022/10/07 09:51:23;;;;;;;22.13;13.35;;;19.50;99.90;;;;;;6186721;23;20386;-83
2022/10/07 09:54:04;;;;;;;21.75;13.50;;;19.60;99.90;;;;;;6251809;22;19995;-82
2022/10/07 09:56:53;;;;;;;29.70;13.65;;;19.50;99.90;;;;;;6306180;22;20007;-83
2022/10/07 09:59:20;;;;;;;22.77;14.00;;;19.50;99.90;;;;;;6308522;22;20029;-81
2022/10/07 10:01:50;;;;;;;16.00;12.65;;;19.60;99.90;;;;;;6338715;22;19994;-84
2022/10/07 10:04:43;;;;;;;21.92;12.98;;;19.50;99.90;;;;;;6338937;22;20017;-83
2022/10/07 10:07:19;;;;;;;18.17;13.20;;;19.60;99.90;;;;;;6310411;22;20079;-83
2022/10/07 10:09:54;;;;;;;21.17;13.65;;;19.60;99.90;;;;;;6311417;22;20044;-84
2022/10/07 10:12:22;;;;;;;24.05;11.68;;;19.60;99.90;;;;;;6338872;22;20285;-83
2022/10/07 10:14:56;;;;;;;20.55;13.13;;;19.50;99.90;;;;;;6339354;22;20404;-83
2022/10/07 10:17:27;;;;;;;22.42;12.10;;;19.60;99.90;;;;;;6338950;22;20003;-82
2022/10/07 10:19:54;;;;;;;21.75;12.93;;;19.60;99.90;;;;;;6311545;22;19995;-80
2022/10/07 10:22:25;;;;;;;16.27;10.25;;;19.60;99.90;;;;;;6339010;22;20339;-81
2022/10/07 10:27:51;;;;;;;16.85;9.65;;;19.70;99.90;;;;;;6338801;22;20009;-84
2022/10/07 10:30:22;;;;;;;19.15;9.27;;;19.80;99.90;;;;;;6338977;22;20450;-82
2022/10/07 10:33:03;;;;;;;14.93;9.60;;;19.80;99.90;;;;;;6338993;22;20048;-82
2022/10/07 10:35:39;;;;;;;19.90;9.40;;;19.80;99.90;;;;;;6339312;22;20018;-82
2022/10/07 10:38:20;;;;;;;16.75;9.95;;;19.80;99.90;;;;;;6311404;22;20002;-81
2022/10/07 10:41:04;;;;;;;15.00;8.40;;;19.80;99.90;;;;;;6311166;22;20011;-83
2022/10/07 10:44:08;;;;;;;12.07;8.82;;;19.80;99.90;;;;;;6340993;22;19994;-82
2022/10/07 10:47:16;;;;;;;18.05;10.55;;;19.80;99.90;;;;;;6263212;22;20426;-83
2022/10/07 10:50:22;;;;;;;25.00;12.25;;;19.70;99.90;;;;;;6275912;22;20029;-82
2022/10/07 10:53:15;;;;;;;22.33;14.32;;;19.70;99.90;;;;;;6341024;22;19994;-84
2022/10/07 10:55:56;;;;;;;25.15;12.93;;;19.70;99.90;;;;;;6340892;22;20022;-82
2022/10/07 10:58:28;;;;;;;19.08;11.95;;;19.70;99.90;;;;;;6340648;22;19991;-82
2022/10/07 11:01:29;;;;;;;31.95;13.10;;;19.70;99.90;;;;;;6341041;22;19994;-82
2022/10/07 11:03:55;;;;;;;18.80;12.95;;;19.80;99.90;;;;;;6307142;22;19994;-81
2022/10/07 11:06:22;;;;;;;26.45;14.00;;;19.80;99.90;;;;;;6340771;22;20349;-83
2022/10/07 11:08:50;;;;;;;19.70;14.20;;;19.80;99.90;;;;;;6312861;22;20001;-84
2022/10/07 11:11:21;;;;;;;20.90;12.13;;;19.90;99.90;;;;;;6340365;22;20013;-82
2022/10/07 11:14:11;;;;;;;21.80;12.00;;;19.90;99.90;;;;;;6313347;22;20006;-80
2022/10/07 11:16:49;;;;;;;22.27;11.45;;;19.90;99.90;;;;;;6313264;22;20363;-80
2022/10/07 11:19:30;;;;;;;19.65;10.95;;;19.90;99.90;;;;;;6313111;22;20003;-83
2022/10/07 11:22:01;;;;;;;19.45;11.70;;;20.00;99.90;;;;;;6313373;22;20303;-81
2022/10/07 11:24:30;;;;;;;17.92;10.93;;;19.80;99.90;;;;;;6340787;22;20003;-82
2022/10/07 11:27:21;;;;;;;16.92;10.57;;;19.80;99.90;;;;;;6340250;22;20293;-82
2022/10/07 11:29:55;;;;;;;23.58;11.65;;;19.80;99.90;;;;;;6313084;22;20001;-82
2022/10/07 11:32:28;;;;;;;20.83;11.60;;;19.70;99.90;;;;;;6312923;22;20355;-80
2022/10/07 11:35:13;;;;;;;19.85;9.27;;;19.70;99.90;;;;;;6313298;22;20003;-81
2022/10/07 11:37:53;;;;;;;15.02;9.80;;;19.70;99.90;;;;;;6340160;22;19999;-84
2022/10/07 11:40:21;;;;;;;21.23;10.05;;;19.70;99.90;;;;;;6340596;22;20011;-80
2022/10/07 11:42:50;;;;;;;21.10;10.18;;;19.80;99.90;;;;;;6339943;22;19995;-83
2022/10/07 11:45:25;;;;;;;19.65;9.57;;;19.70;99.30;;;;;;6340467;22;19995;-84
2022/10/07 11:47:58;;;;;;;18.15;9.70;;;19.70;99.90;;;;;;6312809;22;20051;-83
2022/10/07 11:50:34;;;;;;;18.77;9.27;;;19.70;99.90;;;;;;6340373;22;19998;-82
2022/10/07 11:53:06;;;;;;;15.25;8.50;;;19.60;99.70;;;;;;6312529;22;20085;-85
2022/10/07 11:55:44;;;;;;;22.33;9.27;;;19.60;97.90;;;;;;6340363;22;19987;-83
2022/10/07 11:58:28;;;;;;;18.55;8.80;;;19.50;99.90;;;;;;6340442;22;20277;-83
2022/10/07 12:01:21;;;;;;;19.75;9.45;;;19.50;99.50;;;;;;6340368;22;19990;-83
2022/10/07 12:03:47;;;;;;;16.85;10.30;;;19.50;99.90;;;;;;6340538;22;20355;-82
2022/10/07 12:06:13;;;;;;;18.65;10.50;;;19.50;99.90;;;;;;6312794;22;20280;-82
2022/10/07 12:08:41;;;;;;;24.60;10.02;;;19.50;99.90;;;;;;6340139;22;20396;-86
2022/10/07 12:11:11;;;;;;;18.98;9.82;;;19.30;99.90;;;;;;6312377;22;20025;-84
2022/10/07 12:13:45;;;;;;;19.60;9.75;;;19.40;99.90;;;;;;6312409;22;19998;-83
2022/10/07 12:16:30;;;;;;;14.95;8.35;;;19.30;99.90;;;;;;6312361;22;20003;-83
2022/10/07 12:19:17;;;;;;;19.90;9.73;;;19.20;99.90;;;;;;6312662;22;19999;-82
2022/10/07 12:21:58;;;;;;;20.83;11.02;;;19.20;99.90;;;;;;6312458;22;20312;-83
2022/10/07 12:24:26;;;;;;;19.35;11.13;;;19.10;99.90;;;;;;6340282;22;19991;-84
2022/10/07 12:26:54;;;;;;;26.42;12.05;;;19.10;99.90;;;;;;6340071;22;19999;-82
2022/10/07 12:29:44;;;;;;;16.00;9.80;;;19.10;99.90;;;;;;6312651;22;20310;-84
2022/10/07 12:32:38;;;;;;;21.05;9.10;;;19.10;99.90;;;;;;6340368;22;19995;-83
2022/10/07 12:35:33;;;;;;;14.85;7.90;;;19.00;99.90;;;;;;6312238;22;20091;-84
2022/10/07 12:38:18;;;;;;;18.08;8.15;;;18.90;99.90;;;;;;6312080;22;19999;-83
2022/10/07 12:41:01;;;;;;;18.75;8.95;;;18.90;99.90;;;;;;6312192;22;20034;-85
2022/10/07 12:43:35;;;;;;;24.08;10.27;;;18.90;99.90;;;;;;6312536;22;19998;-85
2022/10/07 12:46:08;;;;;;;18.77;9.20;;;18.80;99.90;;;;;;6340203;22;19995;-85
2022/10/07 12:48:40;;;;;;;23.30;8.73;;;18.90;99.90;;;;;;6312520;22;19995;-84
2022/10/07 12:51:18;;;;;;;16.48;8.52;;;18.80;99.90;;;;;;6339421;22;20004;-85
2022/10/07 12:53:46;;;;;;;18.60;7.28;;;18.80;99.90;;;;;;6312028;22;19995;-84
2022/10/07 12:56:21;;;;;;;16.50;7.20;;;18.70;99.90;;;;;;6339727;22;20082;-85
2022/10/07 13:02:23;;;;;;;13.52;6.22;;;18.70;99.90;;;;;;6339612;22;20433;-83
2022/10/07 13:04:49;;;;;;;12.20;7.18;;;18.70;99.90;;;;;;6311926;22;20303;-83
2022/10/07 13:08:01;;;;;;;21.33;6.70;;;18.70;99.90;;;;;;6311993;22;20011;-86